createdAt,value
2023-06-11T00:05:08.677Z,82.06
2023-06-11T00:10:17.448Z,82.35
2023-06-11T00:15:20.482Z,82.18
2023-06-11T00:21:09.774Z,82.21
2023-06-11T00:26:36.712Z,82.43
2023-06-11T00:32:13.099Z,82.54
2023-06-11T00:37:23.738Z,82.70
2023-06-11T00:43:08.597Z,82.77
2023-06-11T00:48:31.636Z,82.91
2023-06-11T00:53:55.987Z,82.91
2023-06-11T00:59:18.947Z,83.14
2023-06-11T01:04:34.141Z,82.99
2023-06-11T01:09:58.196Z,83.21
2023-06-11T01:15:22.095Z,83.29
2023-06-11T01:21:31.562Z,83.49
2023-06-11T01:28:44.715Z,83.82
2023-06-11T01:35:40.112Z,83.94
2023-06-11T01:41:28.432Z,83.94
2023-06-11T01:47:49.772Z,83.89
2023-06-11T01:53:22.514Z,84.33
2023-06-11T01:58:34.069Z,84.36
2023-06-11T02:03:54.589Z,84.34
2023-06-11T02:10:34.742Z,84.43
2023-06-11T02:16:44.951Z,84.67
2023-06-11T02:23:19.393Z,84.85
2023-06-11T02:30:03.905Z,85.14
2023-06-11T02:36:18.139Z,85.00
2023-06-11T02:42:20.963Z,85.36
2023-06-11T02:48:27.131Z,85.42
2023-06-11T02:55:10.470Z,85.48
2023-06-11T03:00:58.557Z,85.53
2023-06-11T03:06:37.353Z,85.60
2023-06-11T03:12:22.288Z,85.72
2023-06-11T03:18:22.535Z,85.89
2023-06-11T03:24:27.318Z,85.76
2023-06-11T03:30:03.865Z,85.48
2023-06-11T03:37:03.625Z,84.96
2023-06-11T03:43:19.720Z,84.30
2023-06-11T03:49:50.452Z,83.32
2023-06-11T03:56:01.625Z,83.51
2023-06-11T04:01:12.641Z,83.56
2023-06-11T04:07:00.214Z,83.68
2023-06-11T04:12:34.501Z,83.47
2023-06-11T04:18:08.499Z,83.49
2023-06-11T04:23:41.525Z,83.49
2023-06-11T04:29:25.648Z,83.70
2023-06-11T04:35:28.233Z,83.60
2023-06-11T04:41:04.778Z,83.33
2023-06-11T04:47:18.688Z,83.19
2023-06-11T04:52:46.099Z,83.02
2023-06-11T04:58:31.356Z,82.40
2023-06-11T05:04:26.473Z,81.63
2023-06-11T05:10:39.706Z,81.51
2023-06-11T05:16:21.906Z,81.14
2023-06-11T05:22:50.855Z,80.85
2023-06-11T05:28:20.845Z,80.43
2023-06-11T05:33:37.970Z,80.00
2023-06-11T05:39:07.414Z,79.48
2023-06-11T05:44:12.310Z,78.84
2023-06-11T05:49:30.062Z,78.78
2023-06-11T05:54:41.436Z,78.24
2023-06-11T06:00:15.028Z,77.84
2023-06-11T06:06:05.070Z,77.40
2023-06-11T06:11:14.363Z,77.21
2023-06-11T06:16:29.052Z,76.85
2023-06-11T06:22:05.772Z,76.29
2023-06-11T06:27:11.801Z,75.84
2023-06-11T06:32:16.694Z,75.16
2023-06-11T06:37:44.857Z,74.81
2023-06-11T06:42:58.186Z,74.40
2023-06-11T06:48:35.277Z,74.21
2023-06-11T06:54:06.976Z,73.94
2023-06-11T06:59:24.149Z,73.62
2023-06-11T07:04:58.171Z,73.18
2023-06-11T07:11:02.342Z,73.19
2023-06-11T07:17:14.932Z,72.47
2023-06-11T07:22:51.862Z,71.90
2023-06-11T07:28:06.775Z,71.80
2023-06-11T07:33:18.120Z,71.20
2023-06-11T07:38:45.432Z,71.24
2023-06-11T07:43:48.941Z,71.14
2023-06-11T07:48:54.109Z,70.59
2023-06-11T07:54:07.155Z,70.44
2023-06-11T07:59:21.354Z,70.81
2023-06-11T08:04:23.872Z,70.53
2023-06-11T08:09:30.964Z,69.65
2023-06-11T08:14:38.434Z,68.42
2023-06-11T08:19:40.663Z,67.78
2023-06-11T08:24:51.723Z,67.81
2023-06-11T08:29:54.174Z,67.52
2023-06-11T08:35:02.254Z,67.48
2023-06-11T08:40:30.528Z,66.75
2023-06-11T08:45:46.209Z,66.30
2023-06-11T08:51:05.830Z,65.55
2023-06-11T08:56:10.957Z,65.01
2023-06-11T09:01:24.573Z,64.10
2023-06-11T09:06:29.230Z,63.34
2023-06-11T09:12:06.956Z,63.34
2023-06-11T09:17:42.915Z,62.32
2023-06-11T09:22:46.785Z,62.28
2023-06-11T09:27:52.041Z,61.48
2023-06-11T09:32:54.914Z,61.49
2023-06-11T09:37:57.368Z,61.34
2023-06-11T09:43:06.796Z,60.94
2023-06-11T09:48:13.247Z,60.59
2023-06-11T09:53:28.996Z,60.86
2023-06-11T09:58:38.215Z,60.61
2023-06-11T10:03:41.718Z,60.74
2023-06-11T10:09:04.925Z,60.55
2023-06-11T10:14:17.153Z,60.75
2023-06-11T10:19:43.403Z,60.98
2023-06-11T10:25:02.940Z,58.56
2023-06-11T10:30:09.338Z,58.93
2023-06-11T10:35:41.490Z,58.55
2023-06-11T10:40:49.141Z,56.91
2023-06-11T10:46:19.350Z,57.37
2023-06-11T10:51:25.141Z,57.77
2023-06-11T10:56:30.926Z,57.22
2023-06-11T11:01:36.120Z,57.14
2023-06-11T11:06:54.139Z,56.76
2023-06-11T11:11:59.958Z,56.53
2023-06-11T11:17:03.790Z,56.22
2023-06-11T11:22:07.961Z,55.93
2023-06-11T11:27:10.808Z,55.60
2023-06-11T11:32:30.299Z,54.95
2023-06-11T11:37:34.891Z,54.94
2023-06-11T11:42:52.163Z,53.73
2023-06-11T11:47:54.545Z,53.41
2023-06-11T11:53:05.243Z,54.44
2023-06-11T11:58:09.851Z,53.55
2023-06-11T12:03:18.244Z,53.57
2023-06-11T12:08:33.511Z,53.20
2023-06-11T12:13:46.509Z,54.09
2023-06-11T12:19:18.674Z,54.07
2023-06-11T12:24:27.382Z,54.11
2023-06-11T12:29:54.572Z,53.59
2023-06-11T12:35:08.831Z,52.47
2023-06-11T12:40:20.868Z,50.84
2023-06-11T12:45:28.325Z,51.06
2023-06-11T12:50:30.945Z,51.00
2023-06-11T12:55:33.994Z,50.41
2023-06-11T13:00:41.897Z,50.98
2023-06-11T13:05:46.339Z,51.20
2023-06-11T13:10:53.837Z,52.08
2023-06-11T13:15:55.835Z,51.06
2023-06-11T13:21:00.360Z,51.34
2023-06-11T13:26:22.903Z,51.16
2023-06-11T13:32:03.370Z,50.66
2023-06-11T13:37:11.000Z,50.88
2023-06-11T13:42:28.828Z,50.22
2023-06-11T13:48:19.454Z,50.34
2023-06-11T13:53:31.055Z,51.26
2023-06-11T13:58:45.065Z,51.36
2023-06-11T14:03:49.994Z,50.73
2023-06-11T14:09:11.499Z,49.67
2023-06-11T14:14:18.239Z,49.38
2023-06-11T14:19:47.828Z,49.86
2023-06-11T14:25:18.387Z,48.99
2023-06-11T14:30:23.530Z,48.83
2023-06-11T14:35:26.303Z,48.97
2023-06-11T14:40:32.440Z,49.10
2023-06-11T14:45:46.439Z,49.14
2023-06-11T14:50:56.772Z,48.78
2023-06-11T14:56:04.812Z,48.35
2023-06-11T15:01:16.260Z,48.43
2023-06-11T15:06:18.877Z,49.12
2023-06-11T15:11:35.707Z,49.10
2023-06-11T15:16:55.932Z,49.02
2023-06-11T15:22:11.239Z,48.93
2023-06-11T15:27:21.590Z,48.81
2023-06-11T15:32:27.511Z,48.40
2023-06-11T15:37:33.054Z,47.57
2023-06-11T15:42:58.131Z,48.64
2023-06-11T15:48:09.864Z,49.00
2023-06-11T15:53:36.961Z,48.98
2023-06-11T15:58:42.140Z,48.76
2023-06-11T16:03:45.091Z,49.33
2023-06-11T16:09:01.720Z,49.66
2023-06-11T16:14:39.463Z,49.52
2023-06-11T16:19:53.574Z,49.63
2023-06-11T16:25:07.482Z,49.59
2023-06-11T16:30:18.335Z,49.20
2023-06-11T16:35:36.554Z,50.04
2023-06-11T16:41:10.171Z,48.97
2023-06-11T16:46:57.928Z,49.32
2023-06-11T16:52:17.211Z,49.15
2023-06-11T16:57:20.277Z,48.80
2023-06-11T17:02:33.341Z,48.69
2023-06-11T17:07:40.821Z,49.00
2023-06-11T17:13:03.338Z,49.44
2023-06-11T17:18:08.400Z,48.28
2023-06-11T17:23:45.659Z,47.74
2023-06-11T17:28:51.005Z,46.75
2023-06-11T17:33:55.960Z,45.71
2023-06-11T17:39:08.356Z,45.05
2023-06-11T17:44:24.552Z,44.19
2023-06-11T17:49:32.937Z,44.10
2023-06-11T17:54:40.423Z,43.83
2023-06-11T17:59:46.041Z,44.86
2023-06-11T18:04:48.642Z,46.18
2023-06-11T18:09:59.171Z,47.32
2023-06-11T18:15:18.157Z,48.45
2023-06-11T18:20:28.546Z,49.21
2023-06-11T18:25:45.167Z,50.02
2023-06-11T18:31:04.166Z,50.95
2023-06-11T18:36:06.328Z,51.51
2023-06-11T18:41:11.577Z,52.06
2023-06-11T18:46:16.886Z,52.68
2023-06-11T18:51:26.469Z,53.34
2023-06-11T18:56:29.687Z,54.19
2023-06-11T19:01:32.544Z,55.00
2023-06-11T19:06:36.339Z,56.04
2023-06-11T19:12:02.186Z,57.12
2023-06-11T19:17:07.642Z,57.93
2023-06-11T19:22:10.532Z,58.59
2023-06-11T19:27:13.353Z,59.35
2023-06-11T19:32:15.852Z,59.94
2023-06-11T19:37:17.707Z,60.68
2023-06-11T19:42:29.263Z,61.41
2023-06-11T19:47:33.059Z,62.09
2023-06-11T19:52:38.406Z,62.71
2023-06-11T19:57:40.807Z,63.13
2023-06-11T20:02:43.482Z,63.46
2023-06-11T20:07:46.103Z,63.83
2023-06-11T20:12:48.281Z,64.44
2023-06-11T20:18:03.179Z,64.66
2023-06-11T20:23:26.269Z,64.88
2023-06-11T20:28:32.112Z,65.29
2023-06-11T20:33:36.055Z,65.85
2023-06-11T20:38:40.538Z,66.32
2023-06-11T20:43:47.129Z,66.66
2023-06-11T20:48:49.559Z,66.81
2023-06-11T20:53:55.488Z,67.54
2023-06-11T20:58:57.931Z,67.98
2023-06-11T21:04:05.808Z,68.52
2023-06-11T21:09:10.300Z,68.83
2023-06-11T21:14:18.399Z,69.17
2023-06-11T21:19:21.362Z,69.68
2023-06-11T21:24:38.602Z,70.40
2023-06-11T21:29:58.602Z,70.40
2023-06-11T21:35:11.937Z,70.70
2023-06-11T21:40:15.547Z,70.70
2023-06-11T21:45:20.467Z,70.79
2023-06-11T21:50:34.631Z,71.40
2023-06-11T21:55:41.144Z,71.48
2023-06-11T22:00:53.547Z,71.46
2023-06-11T22:05:59.779Z,71.66
2023-06-11T22:11:05.100Z,72.09
2023-06-11T22:16:14.191Z,72.19
2023-06-11T22:21:19.622Z,72.57
2023-06-11T22:26:23.768Z,72.75
2023-06-11T22:31:26.605Z,73.00
2023-06-11T22:36:50.215Z,73.31
2023-06-11T22:42:15.105Z,73.40
2023-06-11T22:47:17.498Z,73.81
2023-06-11T22:52:20.438Z,73.97
2023-06-11T22:57:27.269Z,74.05
2023-06-11T23:02:43.659Z,74.44
2023-06-11T23:07:52.807Z,74.59
2023-06-11T23:12:56.351Z,74.82
2023-06-11T23:18:07.080Z,75.07
2023-06-11T23:23:12.167Z,75.25
2023-06-11T23:28:23.599Z,75.39
2023-06-11T23:33:31.607Z,75.60
2023-06-11T23:38:49.646Z,75.85
2023-06-11T23:43:54.373Z,76.29
2023-06-11T23:49:22.792Z,76.30
2023-06-11T23:55:02.670Z,76.67
